sensor_id;sensor_type;location;lat;lon;timestamp;P1;durP1;ratioP1;P2;durP2;ratioP2
24617;SDS011;12762;51.730;5.356;2022-09-24T00:01:22;31.03;;;19.93;;
24617;SDS011;12762;51.730;5.356;2022-09-24T00:03:55;30.87;;;18.27;;
24617;SDS011;12762;51.730;5.356;2022-09-24T00:06:26;31.40;;;19.90;;
24617;SDS011;12762;51.730;5.356;2022-09-24T00:08:55;27.53;;;19.20;;
24617;SDS011;12762;51.730;5.356;2022-09-24T00:11:26;32.10;;;19.83;;
24617;SDS011;12762;51.730;5.356;2022-09-24T00:13:54;30.43;;;19.37;;
24617;SDS011;12762;51.730;5.356;2022-09-24T00:16:23;30.83;;;19.93;;
24617;SDS011;12762;51.730;5.356;2022-09-24T00:18:53;36.57;;;22.67;;
24617;SDS011;12762;51.730;5.356;2022-09-24T00:21:22;33.90;;;21.83;;
24617;SDS011;12762;51.730;5.356;2022-09-24T00:23:52;35.90;;;22.03;;
24617;SDS011;12762;51.730;5.356;2022-09-24T00:26:22;34.00;;;21.83;;
24617;SDS011;12762;51.730;5.356;2022-09-24T00:29:09;34.07;;;21.20;;
24617;SDS011;12762;51.730;5.356;2022-09-24T00:31:38;35.27;;;21.63;;
24617;SDS011;12762;51.730;5.356;2022-09-24T00:34:05;35.77;;;22.13;;
24617;SDS011;12762;51.730;5.356;2022-09-24T00:36:32;35.70;;;21.67;;
24617;SDS011;12762;51.730;5.356;2022-09-24T00:38:59;34.03;;;21.77;;
24617;SDS011;12762;51.730;5.356;2022-09-24T00:41:27;36.53;;;22.50;;
24617;SDS011;12762;51.730;5.356;2022-09-24T00:43:55;33.83;;;21.67;;
24617;SDS011;12762;51.730;5.356;2022-09-24T00:46:39;35.37;;;21.63;;
24617;SDS011;12762;51.730;5.356;2022-09-24T00:49:16;33.20;;;20.37;;
24617;SDS011;12762;51.730;5.356;2022-09-24T00:51:47;32.83;;;20.80;;
24617;SDS011;12762;51.730;5.356;2022-09-24T00:54:19;32.37;;;20.03;;
24617;SDS011;12762;51.730;5.356;2022-09-24T00:56:51;30.90;;;19.57;;
24617;SDS011;12762;51.730;5.356;2022-09-24T00:59:20;29.47;;;18.23;;
24617;SDS011;12762;51.730;5.356;2022-09-24T01:01:49;26.97;;;17.80;;
24617;SDS011;12762;51.730;5.356;2022-09-24T01:04:19;27.03;;;18.10;;
24617;SDS011;12762;51.730;5.356;2022-09-24T01:06:47;27.20;;;17.27;;
24617;SDS011;12762;51.730;5.356;2022-09-24T01:09:18;28.50;;;17.73;;
24617;SDS011;12762;51.730;5.356;2022-09-24T01:14:48;25.30;;;16.20;;
24617;SDS011;12762;51.730;5.356;2022-09-24T01:17:27;26.27;;;16.00;;
24617;SDS011;12762;51.730;5.356;2022-09-24T01:32:01;27.97;;;16.40;;
24617;SDS011;12762;51.730;5.356;2022-09-24T01:34:35;23.20;;;14.87;;
24617;SDS011;12762;51.730;5.356;2022-09-24T01:37:13;23.07;;;15.33;;
24617;SDS011;12762;51.730;5.356;2022-09-24T01:39:45;25.10;;;15.23;;
24617;SDS011;12762;51.730;5.356;2022-09-24T01:42:13;24.13;;;15.03;;
24617;SDS011;12762;51.730;5.356;2022-09-24T01:44:45;21.67;;;13.67;;
24617;SDS011;12762;51.730;5.356;2022-09-24T01:47:15;21.07;;;14.20;;
24617;SDS011;12762;51.730;5.356;2022-09-24T01:49:46;20.83;;;13.63;;
24617;SDS011;12762;51.730;5.356;2022-09-24T01:52:14;24.43;;;14.00;;
24617;SDS011;12762;51.730;5.356;2022-09-24T01:54:51;23.70;;;14.63;;
24617;SDS011;12762;51.730;5.356;2022-09-24T01:57:22;23.50;;;14.63;;
24617;SDS011;12762;51.730;5.356;2022-09-24T02:02:27;23.20;;;12.93;;
24617;SDS011;12762;51.730;5.356;2022-09-24T02:05:04;19.97;;;12.40;;
24617;SDS011;12762;51.730;5.356;2022-09-24T02:10:39;21.40;;;12.67;;
24617;SDS011;12762;51.730;5.356;2022-09-24T02:13:11;21.03;;;12.10;;
24617;SDS011;12762;51.730;5.356;2022-09-24T02:15:41;19.33;;;11.20;;
24617;SDS011;12762;51.730;5.356;2022-09-24T02:18:12;18.63;;;11.33;;
24617;SDS011;12762;51.730;5.356;2022-09-24T02:20:42;19.33;;;12.33;;
24617;SDS011;12762;51.730;5.356;2022-09-24T02:23:10;19.77;;;11.23;;
24617;SDS011;12762;51.730;5.356;2022-09-24T02:25:58;18.83;;;10.77;;
24617;SDS011;12762;51.730;5.356;2022-09-24T02:28:29;21.23;;;12.47;;
24617;SDS011;12762;51.730;5.356;2022-09-24T02:31:01;18.57;;;11.53;;
24617;SDS011;12762;51.730;5.356;2022-09-24T02:33:38;17.57;;;10.87;;
24617;SDS011;12762;51.730;5.356;2022-09-24T02:36:28;18.83;;;11.20;;
24617;SDS011;12762;51.730;5.356;2022-09-24T02:38:55;18.23;;;11.57;;
24617;SDS011;12762;51.730;5.356;2022-09-24T02:41:22;21.00;;;10.97;;
24617;SDS011;12762;51.730;5.356;2022-09-24T02:43:50;18.77;;;11.93;;
24617;SDS011;12762;51.730;5.356;2022-09-24T02:46:17;19.20;;;11.60;;
24617;SDS011;12762;51.730;5.356;2022-09-24T02:48:48;17.63;;;11.23;;
24617;SDS011;12762;51.730;5.356;2022-09-24T02:51:15;18.47;;;11.10;;
24617;SDS011;12762;51.730;5.356;2022-09-24T02:53:44;20.67;;;10.97;;
24617;SDS011;12762;51.730;5.356;2022-09-24T02:56:11;17.00;;;10.87;;
24617;SDS011;12762;51.730;5.356;2022-09-24T02:58:40;19.57;;;11.53;;
24617;SDS011;12762;51.730;5.356;2022-09-24T03:01:08;20.37;;;11.40;;
24617;SDS011;12762;51.730;5.356;2022-09-24T03:03:35;19.07;;;11.63;;
24617;SDS011;12762;51.730;5.356;2022-09-24T03:06:01;19.43;;;12.00;;
24617;SDS011;12762;51.730;5.356;2022-09-24T03:08:28;21.53;;;12.73;;
24617;SDS011;12762;51.730;5.356;2022-09-24T03:10:57;21.87;;;13.00;;
24617;SDS011;12762;51.730;5.356;2022-09-24T03:13:24;20.93;;;12.17;;
24617;SDS011;12762;51.730;5.356;2022-09-24T03:15:51;19.93;;;12.17;;
24617;SDS011;12762;51.730;5.356;2022-09-24T03:18:20;20.73;;;12.07;;
24617;SDS011;12762;51.730;5.356;2022-09-24T03:20:56;24.23;;;12.77;;
24617;SDS011;12762;51.730;5.356;2022-09-24T03:23:24;19.27;;;12.03;;
24617;SDS011;12762;51.730;5.356;2022-09-24T03:25:52;25.23;;;13.50;;
24617;SDS011;12762;51.730;5.356;2022-09-24T03:28:19;22.20;;;12.83;;
24617;SDS011;12762;51.730;5.356;2022-09-24T03:30:46;21.30;;;13.20;;
24617;SDS011;12762;51.730;5.356;2022-09-24T03:33:36;22.27;;;14.23;;
24617;SDS011;12762;51.730;5.356;2022-09-24T03:36:10;19.67;;;12.50;;
24617;SDS011;12762;51.730;5.356;2022-09-24T03:38:38;19.90;;;12.50;;
24617;SDS011;12762;51.730;5.356;2022-09-24T03:41:06;19.93;;;12.77;;
24617;SDS011;12762;51.730;5.356;2022-09-24T03:43:34;20.20;;;12.67;;
24617;SDS011;12762;51.730;5.356;2022-09-24T03:46:02;21.70;;;13.57;;
24617;SDS011;12762;51.730;5.356;2022-09-24T03:48:33;19.63;;;12.17;;
24617;SDS011;12762;51.730;5.356;2022-09-24T03:51:02;19.73;;;12.63;;
24617;SDS011;12762;51.730;5.356;2022-09-24T03:53:40;20.73;;;12.50;;
24617;SDS011;12762;51.730;5.356;2022-09-24T03:56:08;19.10;;;11.77;;
24617;SDS011;12762;51.730;5.356;2022-09-24T03:58:36;21.00;;;11.97;;
24617;SDS011;12762;51.730;5.356;2022-09-24T04:01:04;18.67;;;12.10;;
24617;SDS011;12762;51.730;5.356;2022-09-24T04:03:32;17.53;;;11.20;;
24617;SDS011;12762;51.730;5.356;2022-09-24T04:05:59;20.57;;;11.80;;
24617;SDS011;12762;51.730;5.356;2022-09-24T04:08:26;17.47;;;11.30;;
24617;SDS011;12762;51.730;5.356;2022-09-24T04:10:53;17.30;;;11.00;;
24617;SDS011;12762;51.730;5.356;2022-09-24T04:13:20;17.13;;;11.30;;
24617;SDS011;12762;51.730;5.356;2022-09-24T04:15:48;16.70;;;10.40;;
24617;SDS011;12762;51.730;5.356;2022-09-24T04:18:15;18.70;;;11.03;;
24617;SDS011;12762;51.730;5.356;2022-09-24T04:20:46;17.33;;;11.17;;
24617;SDS011;12762;51.730;5.356;2022-09-24T04:23:13;21.07;;;11.50;;
24617;SDS011;12762;51.730;5.356;2022-09-24T04:25:39;17.80;;;11.50;;
24617;SDS011;12762;51.730;5.356;2022-09-24T04:28:06;18.27;;;11.87;;
24617;SDS011;12762;51.730;5.356;2022-09-24T04:30:34;20.73;;;12.43;;
24617;SDS011;12762;51.730;5.356;2022-09-24T04:33:03;19.23;;;12.53;;
24617;SDS011;12762;51.730;5.356;2022-09-24T04:35:31;18.73;;;12.20;;
24617;SDS011;12762;51.730;5.356;2022-09-24T04:38:00;17.93;;;12.13;;
24617;SDS011;12762;51.730;5.356;2022-09-24T04:40:28;19.20;;;12.20;;
24617;SDS011;12762;51.730;5.356;2022-09-24T04:42:55;19.63;;;12.40;;
24617;SDS011;12762;51.730;5.356;2022-09-24T04:45:22;18.73;;;12.07;;
24617;SDS011;12762;51.730;5.356;2022-09-24T04:47:50;16.80;;;11.60;;
24617;SDS011;12762;51.730;5.356;2022-09-24T04:50:24;17.73;;;11.40;;
24617;SDS011;12762;51.730;5.356;2022-09-24T04:52:58;17.47;;;11.90;;
24617;SDS011;12762;51.730;5.356;2022-09-24T04:55:27;18.00;;;12.00;;
24617;SDS011;12762;51.730;5.356;2022-09-24T04:57:55;18.60;;;11.90;;
24617;SDS011;12762;51.730;5.356;2022-09-24T05:00:22;18.50;;;12.07;;
24617;SDS011;12762;51.730;5.356;2022-09-24T05:02:56;17.67;;;11.43;;
24617;SDS011;12762;51.730;5.356;2022-09-24T05:05:24;17.83;;;11.90;;
24617;SDS011;12762;51.730;5.356;2022-09-24T05:07:54;15.07;;;10.53;;
24617;SDS011;12762;51.730;5.356;2022-09-24T05:10:24;15.40;;;10.40;;
24617;SDS011;12762;51.730;5.356;2022-09-24T05:12:52;17.47;;;11.00;;
24617;SDS011;12762;51.730;5.356;2022-09-24T05:15:19;16.90;;;11.57;;
24617;SDS011;12762;51.730;5.356;2022-09-24T05:17:52;15.53;;;10.63;;
24617;SDS011;12762;51.730;5.356;2022-09-24T05:20:18;16.60;;;11.10;;
24617;SDS011;12762;51.730;5.356;2022-09-24T05:22:46;17.43;;;11.23;;
24617;SDS011;12762;51.730;5.356;2022-09-24T05:25:19;15.20;;;11.07;;
24617;SDS011;12762;51.730;5.356;2022-09-24T05:27:48;15.73;;;10.63;;
24617;SDS011;12762;51.730;5.356;2022-09-24T05:30:17;17.27;;;11.60;;
24617;SDS011;12762;51.730;5.356;2022-09-24T05:32:45;18.00;;;11.57;;
24617;SDS011;12762;51.730;5.356;2022-09-24T05:35:17;16.53;;;11.40;;
24617;SDS011;12762;51.730;5.356;2022-09-24T05:37:45;17.70;;;11.77;;
24617;SDS011;12762;51.730;5.356;2022-09-24T05:40:14;19.77;;;13.07;;
24617;SDS011;12762;51.730;5.356;2022-09-24T05:43:01;17.23;;;11.40;;
24617;SDS011;12762;51.730;5.356;2022-09-24T05:45:29;17.87;;;12.07;;
24617;SDS011;12762;51.730;5.356;2022-09-24T05:47:57;16.43;;;11.83;;
24617;SDS011;12762;51.730;5.356;2022-09-24T05:50:27;19.00;;;12.47;;
24617;SDS011;12762;51.730;5.356;2022-09-24T05:53:00;19.03;;;12.50;;
24617;SDS011;12762;51.730;5.356;2022-09-24T05:55:27;19.53;;;12.40;;
24617;SDS011;12762;51.730;5.356;2022-09-24T05:58:01;18.90;;;12.50;;
24617;SDS011;12762;51.730;5.356;2022-09-24T06:00:32;19.63;;;13.27;;
24617;SDS011;12762;51.730;5.356;2022-09-24T06:03:03;21.30;;;13.13;;
24617;SDS011;12762;51.730;5.356;2022-09-24T06:05:37;23.10;;;12.70;;
24617;SDS011;12762;51.730;5.356;2022-09-24T06:08:08;18.07;;;13.00;;
24617;SDS011;12762;51.730;5.356;2022-09-24T06:10:44;19.27;;;12.60;;
24617;SDS011;12762;51.730;5.356;2022-09-24T06:13:12;19.63;;;13.30;;
24617;SDS011;12762;51.730;5.356;2022-09-24T06:15:46;19.90;;;13.77;;
24617;SDS011;12762;51.730;5.356;2022-09-24T06:18:13;19.10;;;12.63;;
24617;SDS011;12762;51.730;5.356;2022-09-24T06:20:40;19.83;;;13.43;;
24617;SDS011;12762;51.730;5.356;2022-09-24T06:23:07;19.13;;;13.63;;
24617;SDS011;12762;51.730;5.356;2022-09-24T06:25:34;19.60;;;13.80;;
24617;SDS011;12762;51.730;5.356;2022-09-24T06:28:01;21.87;;;14.00;;
24617;SDS011;12762;51.730;5.356;2022-09-24T06:30:36;20.03;;;14.00;;
24617;SDS011;12762;51.730;5.356;2022-09-24T06:33:05;19.27;;;13.63;;
24617;SDS011;12762;51.730;5.356;2022-09-24T06:35:35;20.43;;;13.90;;
24617;SDS011;12762;51.730;5.356;2022-09-24T06:38:07;23.30;;;14.37;;
24617;SDS011;12762;51.730;5.356;2022-09-24T06:40:38;21.80;;;14.47;;
24617;SDS011;12762;51.730;5.356;2022-09-24T06:43:06;18.77;;;13.27;;
24617;SDS011;12762;51.730;5.356;2022-09-24T06:45:35;22.17;;;14.63;;
24617;SDS011;12762;51.730;5.356;2022-09-24T06:48:09;24.53;;;14.10;;
24617;SDS011;12762;51.730;5.356;2022-09-24T06:50:38;21.73;;;13.43;;
24617;SDS011;12762;51.730;5.356;2022-09-24T06:53:07;19.13;;;13.33;;
24617;SDS011;12762;51.730;5.356;2022-09-24T06:55:35;21.63;;;13.93;;
24617;SDS011;12762;51.730;5.356;2022-09-24T06:58:04;22.40;;;14.13;;
24617;SDS011;12762;51.730;5.356;2022-09-24T07:00:32;21.97;;;14.37;;
24617;SDS011;12762;51.730;5.356;2022-09-24T07:03:00;20.83;;;13.63;;
24617;SDS011;12762;51.730;5.356;2022-09-24T07:05:27;19.67;;;13.70;;
24617;SDS011;12762;51.730;5.356;2022-09-24T07:07:54;23.50;;;14.53;;
24617;SDS011;12762;51.730;5.356;2022-09-24T07:10:21;23.43;;;14.07;;
24617;SDS011;12762;51.730;5.356;2022-09-24T07:12:49;23.73;;;14.17;;
24617;SDS011;12762;51.730;5.356;2022-09-24T07:15:16;20.37;;;14.07;;
24617;SDS011;12762;51.730;5.356;2022-09-24T07:17:43;21.00;;;13.30;;
24617;SDS011;12762;51.730;5.356;2022-09-24T07:20:10;21.60;;;14.13;;
24617;SDS011;12762;51.730;5.356;2022-09-24T07:22:37;20.53;;;12.93;;
24617;SDS011;12762;51.730;5.356;2022-09-24T07:25:11;19.93;;;13.43;;
24617;SDS011;12762;51.730;5.356;2022-09-24T07:27:38;20.10;;;13.20;;
24617;SDS011;12762;51.730;5.356;2022-09-24T07:30:05;19.27;;;12.83;;
24617;SDS011;12762;51.730;5.356;2022-09-24T07:32:33;25.23;;;14.40;;
24617;SDS011;12762;51.730;5.356;2022-09-24T07:35:00;20.13;;;13.47;;
24617;SDS011;12762;51.730;5.356;2022-09-24T07:37:27;19.17;;;12.43;;
24617;SDS011;12762;51.730;5.356;2022-09-24T07:39:57;22.20;;;13.50;;
24617;SDS011;12762;51.730;5.356;2022-09-24T07:42:24;21.67;;;13.20;;
24617;SDS011;12762;51.730;5.356;2022-09-24T07:44:51;24.17;;;14.37;;
24617;SDS011;12762;51.730;5.356;2022-09-24T07:47:18;19.57;;;13.00;;
24617;SDS011;12762;51.730;5.356;2022-09-24T07:49:45;22.97;;;14.30;;
24617;SDS011;12762;51.730;5.356;2022-09-24T07:52:12;22.40;;;13.73;;
24617;SDS011;12762;51.730;5.356;2022-09-24T07:54:39;21.13;;;13.33;;
24617;SDS011;12762;51.730;5.356;2022-09-24T07:57:09;20.30;;;13.87;;
24617;SDS011;12762;51.730;5.356;2022-09-24T07:59:38;22.00;;;14.43;;
24617;SDS011;12762;51.730;5.356;2022-09-24T08:02:13;22.17;;;14.00;;
24617;SDS011;12762;51.730;5.356;2022-09-24T08:04:42;21.97;;;14.53;;
24617;SDS011;12762;51.730;5.356;2022-09-24T08:07:10;19.33;;;13.77;;
24617;SDS011;12762;51.730;5.356;2022-09-24T08:09:37;19.80;;;13.23;;
24617;SDS011;12762;51.730;5.356;2022-09-24T08:12:05;20.83;;;13.53;;
24617;SDS011;12762;51.730;5.356;2022-09-24T08:14:32;20.30;;;13.07;;
24617;SDS011;12762;51.730;5.356;2022-09-24T08:17:01;20.40;;;13.70;;
24617;SDS011;12762;51.730;5.356;2022-09-24T08:19:28;20.97;;;13.13;;
24617;SDS011;12762;51.730;5.356;2022-09-24T08:21:56;19.57;;;12.53;;
24617;SDS011;12762;51.730;5.356;2022-09-24T08:24:23;21.30;;;13.63;;
24617;SDS011;12762;51.730;5.356;2022-09-24T08:26:51;22.17;;;13.33;;
24617;SDS011;12762;51.730;5.356;2022-09-24T08:29:17;17.23;;;11.80;;
24617;SDS011;12762;51.730;5.356;2022-09-24T08:31:44;19.57;;;13.37;;
24617;SDS011;12762;51.730;5.356;2022-09-24T08:34:11;19.83;;;13.17;;
24617;SDS011;12762;51.730;5.356;2022-09-24T08:36:38;17.77;;;12.30;;
24617;SDS011;12762;51.730;5.356;2022-09-24T08:39:08;19.73;;;13.50;;
24617;SDS011;12762;51.730;5.356;2022-09-24T08:41:43;20.97;;;13.47;;
24617;SDS011;12762;51.730;5.356;2022-09-24T08:44:35;18.73;;;12.27;;
24617;SDS011;12762;51.730;5.356;2022-09-24T08:47:32;21.43;;;13.10;;
24617;SDS011;12762;51.730;5.356;2022-09-24T08:55:17;21.70;;;13.17;;
24617;SDS011;12762;51.730;5.356;2022-09-24T09:00:53;20.87;;;13.27;;
24617;SDS011;12762;51.730;5.356;2022-09-24T09:09:16;21.13;;;13.07;;
24617;SDS011;12762;51.730;5.356;2022-09-24T09:11:55;21.43;;;13.23;;
24617;SDS011;12762;51.730;5.356;2022-09-24T09:14:34;21.63;;;13.97;;
24617;SDS011;12762;51.730;5.356;2022-09-24T09:17:18;21.97;;;13.77;;
24617;SDS011;12762;51.730;5.356;2022-09-24T09:19:58;24.47;;;14.40;;
24617;SDS011;12762;51.730;5.356;2022-09-24T09:22:30;21.67;;;13.40;;
24617;SDS011;12762;51.730;5.356;2022-09-24T09:25:13;21.97;;;14.10;;
24617;SDS011;12762;51.730;5.356;2022-09-24T09:27:52;21.90;;;13.13;;
24617;SDS011;12762;51.730;5.356;2022-09-24T09:31:00;20.90;;;13.40;;
24617;SDS011;12762;51.730;5.356;2022-09-24T09:36:34;21.10;;;13.50;;
24617;SDS011;12762;51.730;5.356;2022-09-24T09:40:15;21.70;;;13.40;;
24617;SDS011;12762;51.730;5.356;2022-09-24T09:42:31;21.80;;;12.77;;
24617;SDS011;12762;51.730;5.356;2022-09-24T09:45:18;21.53;;;13.53;;
24617;SDS011;12762;51.730;5.356;2022-09-24T09:47:58;23.60;;;14.10;;
24617;SDS011;12762;51.730;5.356;2022-09-24T09:50:30;23.23;;;14.03;;
24617;SDS011;12762;51.730;5.356;2022-09-24T09:53:04;21.27;;;13.37;;
24617;SDS011;12762;51.730;5.356;2022-09-24T09:55:35;22.53;;;13.47;;
24617;SDS011;12762;51.730;5.356;2022-09-24T10:01:07;22.43;;;14.00;;
24617;SDS011;12762;51.730;5.356;2022-09-24T10:06:12;22.90;;;14.43;;
24617;SDS011;12762;51.730;5.356;2022-09-24T10:08:47;23.77;;;14.37;;
24617;SDS011;12762;51.730;5.356;2022-09-24T10:11:15;22.47;;;13.33;;
24617;SDS011;12762;51.730;5.356;2022-09-24T10:13:42;22.27;;;13.50;;
24617;SDS011;12762;51.730;5.356;2022-09-24T10:16:10;20.70;;;13.00;;
24617;SDS011;12762;51.730;5.356;2022-09-24T10:21:13;19.13;;;12.17;;
24617;SDS011;12762;51.730;5.356;2022-09-24T10:24:00;20.17;;;12.73;;
24617;SDS011;12762;51.730;5.356;2022-09-24T10:26:41;19.60;;;12.20;;
24617;SDS011;12762;51.730;5.356;2022-09-24T10:32:14;21.83;;;13.40;;
24617;SDS011;12762;51.730;5.356;2022-09-24T10:34:56;21.33;;;13.97;;
24617;SDS011;12762;51.730;5.356;2022-09-24T10:37:28;20.43;;;13.50;;
24617;SDS011;12762;51.730;5.356;2022-09-24T10:39:55;21.33;;;13.50;;
24617;SDS011;12762;51.730;5.356;2022-09-24T10:42:27;22.43;;;13.47;;
24617;SDS011;12762;51.730;5.356;2022-09-24T10:44:57;23.00;;;14.13;;
24617;SDS011;12762;51.730;5.356;2022-09-24T10:47:26;23.90;;;14.50;;
24617;SDS011;12762;51.730;5.356;2022-09-24T10:52:54;18.60;;;12.07;;
24617;SDS011;12762;51.730;5.356;2022-09-24T10:55:40;21.00;;;13.17;;
24617;SDS011;12762;51.730;5.356;2022-09-24T10:58:25;19.53;;;12.87;;
24617;SDS011;12762;51.730;5.356;2022-09-24T11:09:17;20.93;;;13.77;;
24617;SDS011;12762;51.730;5.356;2022-09-24T11:12:29;17.37;;;11.90;;
24617;SDS011;12762;51.730;5.356;2022-09-24T11:15:03;22.73;;;14.40;;
24617;SDS011;12762;51.730;5.356;2022-09-24T11:20:36;21.73;;;13.57;;
24617;SDS011;12762;51.730;5.356;2022-09-24T11:23:25;21.63;;;13.57;;
24617;SDS011;12762;51.730;5.356;2022-09-24T11:26:14;22.33;;;14.50;;
24617;SDS011;12762;51.730;5.356;2022-09-24T11:31:25;23.47;;;14.40;;
24617;SDS011;12762;51.730;5.356;2022-09-24T11:40:10;21.43;;;14.47;;
24617;SDS011;12762;51.730;5.356;2022-09-24T11:43:11;21.13;;;13.53;;
24617;SDS011;12762;51.730;5.356;2022-09-24T11:45:45;21.73;;;13.80;;
24617;SDS011;12762;51.730;5.356;2022-09-24T11:51:25;20.63;;;13.53;;
24617;SDS011;12762;51.730;5.356;2022-09-24T11:54:07;19.33;;;13.00;;
24617;SDS011;12762;51.730;5.356;2022-09-24T11:56:48;19.43;;;13.07;;
24617;SDS011;12762;51.730;5.356;2022-09-24T11:59:27;17.43;;;12.10;;
24617;SDS011;12762;51.730;5.356;2022-09-24T12:02:02;16.90;;;11.23;;
24617;SDS011;12762;51.730;5.356;2022-09-24T12:07:42;14.40;;;10.23;;
24617;SDS011;12762;51.730;5.356;2022-09-24T12:10:38;14.23;;;10.37;;
24617;SDS011;12762;51.730;5.356;2022-09-24T12:13:19;16.00;;;11.17;;
24617;SDS011;12762;51.730;5.356;2022-09-24T12:15:54;16.37;;;11.03;;
24617;SDS011;12762;51.730;5.356;2022-09-24T12:18:35;16.70;;;10.90;;
24617;SDS011;12762;51.730;5.356;2022-09-24T12:21:33;20.00;;;13.60;;
24617;SDS011;12762;51.730;5.356;2022-09-24T12:24:26;18.90;;;11.90;;
24617;SDS011;12762;51.730;5.356;2022-09-24T12:27:18;17.50;;;11.90;;
24617;SDS011;12762;51.730;5.356;2022-09-24T12:36:22;19.67;;;12.50;;
24617;SDS011;12762;51.730;5.356;2022-09-24T12:39:24;18.17;;;11.63;;
24617;SDS011;12762;51.730;5.356;2022-09-24T12:42:00;14.43;;;9.40;;
24617;SDS011;12762;51.730;5.356;2022-09-24T12:44:52;14.97;;;9.87;;
24617;SDS011;12762;51.730;5.356;2022-09-24T12:47:21;13.60;;;9.97;;
24617;SDS011;12762;51.730;5.356;2022-09-24T12:49:53;14.40;;;8.60;;
24617;SDS011;12762;51.730;5.356;2022-09-24T12:52:35;13.00;;;8.80;;
24617;SDS011;12762;51.730;5.356;2022-09-24T12:55:26;12.17;;;7.93;;
24617;SDS011;12762;51.730;5.356;2022-09-24T12:58:23;14.63;;;9.00;;
24617;SDS011;12762;51.730;5.356;2022-09-24T13:01:12;9.87;;;6.80;;
24617;SDS011;12762;51.730;5.356;2022-09-24T13:06:51;14.47;;;10.00;;
24617;SDS011;12762;51.730;5.356;2022-09-24T13:14:59;11.87;;;8.50;;
24617;SDS011;12762;51.730;5.356;2022-09-24T13:17:29;11.70;;;7.93;;
24617;SDS011;12762;51.730;5.356;2022-09-24T13:20:14;12.50;;;8.67;;
24617;SDS011;12762;51.730;5.356;2022-09-24T13:22:56;12.27;;;8.43;;
24617;SDS011;12762;51.730;5.356;2022-09-24T13:25:58;14.80;;;9.37;;
24617;SDS011;12762;51.730;5.356;2022-09-24T13:28:31;13.73;;;9.77;;
24617;SDS011;12762;51.730;5.356;2022-09-24T13:33:57;14.23;;;9.57;;
24617;SDS011;12762;51.730;5.356;2022-09-24T13:37:21;12.60;;;8.10;;
24617;SDS011;12762;51.730;5.356;2022-09-24T13:39:46;13.10;;;8.50;;
24617;SDS011;12762;51.730;5.356;2022-09-24T13:45:14;12.93;;;8.30;;
24617;SDS011;12762;51.730;5.356;2022-09-24T13:47:45;12.67;;;8.50;;
24617;SDS011;12762;51.730;5.356;2022-09-24T13:50:23;14.33;;;8.63;;
24617;SDS011;12762;51.730;5.356;2022-09-24T13:55:29;11.70;;;7.17;;
24617;SDS011;12762;51.730;5.356;2022-09-24T13:57:59;10.50;;;7.13;;
24617;SDS011;12762;51.730;5.356;2022-09-24T14:00:27;10.53;;;6.20;;
24617;SDS011;12762;51.730;5.356;2022-09-24T14:05:38;9.27;;;5.97;;
24617;SDS011;12762;51.730;5.356;2022-09-24T14:08:14;10.00;;;6.27;;
24617;SDS011;12762;51.730;5.356;2022-09-24T14:10:43;9.33;;;5.97;;
24617;SDS011;12762;51.730;5.356;2022-09-24T14:13:18;10.37;;;6.50;;
24617;SDS011;12762;51.730;5.356;2022-09-24T14:15:49;10.63;;;6.60;;
24617;SDS011;12762;51.730;5.356;2022-09-24T14:18:18;11.03;;;7.00;;
24617;SDS011;12762;51.730;5.356;2022-09-24T14:20:48;8.83;;;6.23;;
24617;SDS011;12762;51.730;5.356;2022-09-24T14:26:49;9.87;;;6.23;;
24617;SDS011;12762;51.730;5.356;2022-09-24T14:29:27;10.17;;;7.07;;
24617;SDS011;12762;51.730;5.356;2022-09-24T14:32:00;9.30;;;6.33;;
24617;SDS011;12762;51.730;5.356;2022-09-24T14:37:08;10.67;;;5.83;;
24617;SDS011;12762;51.730;5.356;2022-09-24T14:39:58;9.57;;;5.70;;
24617;SDS011;12762;51.730;5.356;2022-09-24T14:42:40;11.50;;;6.40;;
24617;SDS011;12762;51.730;5.356;2022-09-24T14:45:22;10.20;;;6.47;;
24617;SDS011;12762;51.730;5.356;2022-09-24T14:51:50;9.83;;;5.47;;
24617;SDS011;12762;51.730;5.356;2022-09-24T14:54:29;8.67;;;6.17;;
24617;SDS011;12762;51.730;5.356;2022-09-24T14:57:08;7.83;;;5.07;;
24617;SDS011;12762;51.730;5.356;2022-09-24T14:59:44;7.37;;;4.87;;
24617;SDS011;12762;51.730;5.356;2022-09-24T15:05:05;9.27;;;4.90;;
24617;SDS011;12762;51.730;5.356;2022-09-24T15:07:33;8.23;;;4.77;;
24617;SDS011;12762;51.730;5.356;2022-09-24T15:10:05;7.10;;;4.73;;
24617;SDS011;12762;51.730;5.356;2022-09-24T15:12:33;6.33;;;4.70;;
24617;SDS011;12762;51.730;5.356;2022-09-24T15:15:02;6.10;;;3.90;;
24617;SDS011;12762;51.730;5.356;2022-09-24T15:17:50;6.37;;;3.40;;
24617;SDS011;12762;51.730;5.356;2022-09-24T15:20:19;5.47;;;3.03;;
24617;SDS011;12762;51.730;5.356;2022-09-24T15:22:46;6.03;;;3.60;;
24617;SDS011;12762;51.730;5.356;2022-09-24T15:25:13;7.00;;;3.17;;
24617;SDS011;12762;51.730;5.356;2022-09-24T15:27:40;6.50;;;3.53;;
24617;SDS011;12762;51.730;5.356;2022-09-24T15:30:11;6.07;;;2.83;;
24617;SDS011;12762;51.730;5.356;2022-09-24T15:32:45;4.60;;;2.50;;
24617;SDS011;12762;51.730;5.356;2022-09-24T15:35:13;4.90;;;2.87;;
24617;SDS011;12762;51.730;5.356;2022-09-24T15:37:41;5.23;;;2.73;;
24617;SDS011;12762;51.730;5.356;2022-09-24T15:42:50;6.37;;;3.00;;
24617;SDS011;12762;51.730;5.356;2022-09-24T15:45:18;5.20;;;2.70;;
24617;SDS011;12762;51.730;5.356;2022-09-24T15:47:50;4.63;;;2.80;;
24617;SDS011;12762;51.730;5.356;2022-09-24T15:50:18;3.67;;;2.80;;
24617;SDS011;12762;51.730;5.356;2022-09-24T15:52:49;3.93;;;2.57;;
24617;SDS011;12762;51.730;5.356;2022-09-24T15:55:19;3.70;;;2.53;;
24617;SDS011;12762;51.730;5.356;2022-09-24T15:57:47;4.67;;;2.87;;
24617;SDS011;12762;51.730;5.356;2022-09-24T16:00:15;4.53;;;2.80;;
24617;SDS011;12762;51.730;5.356;2022-09-24T16:02:45;6.93;;;3.17;;
24617;SDS011;12762;51.730;5.356;2022-09-24T16:05:15;4.93;;;3.43;;
24617;SDS011;12762;51.730;5.356;2022-09-24T16:07:42;5.17;;;2.97;;
24617;SDS011;12762;51.730;5.356;2022-09-24T16:10:10;4.97;;;3.00;;
24617;SDS011;12762;51.730;5.356;2022-09-24T16:12:38;4.00;;;2.80;;
24617;SDS011;12762;51.730;5.356;2022-09-24T16:15:06;7.23;;;2.97;;
24617;SDS011;12762;51.730;5.356;2022-09-24T16:17:45;4.27;;;2.63;;
24617;SDS011;12762;51.730;5.356;2022-09-24T16:20:15;4.43;;;2.80;;
24617;SDS011;12762;51.730;5.356;2022-09-24T16:22:42;4.10;;;2.40;;
24617;SDS011;12762;51.730;5.356;2022-09-24T16:25:10;3.70;;;2.40;;
24617;SDS011;12762;51.730;5.356;2022-09-24T16:27:37;5.00;;;2.60;;
24617;SDS011;12762;51.730;5.356;2022-09-24T16:30:05;5.57;;;2.00;;
24617;SDS011;12762;51.730;5.356;2022-09-24T16:32:33;7.20;;;2.53;;
24617;SDS011;12762;51.730;5.356;2022-09-24T16:35:03;6.07;;;2.20;;
24617;SDS011;12762;51.730;5.356;2022-09-24T16:37:29;4.87;;;1.90;;
24617;SDS011;12762;51.730;5.356;2022-09-24T16:39:59;5.77;;;2.20;;
24617;SDS011;12762;51.730;5.356;2022-09-24T16:42:26;5.10;;;1.90;;
24617;SDS011;12762;51.730;5.356;2022-09-24T16:44:56;4.27;;;1.83;;
24617;SDS011;12762;51.730;5.356;2022-09-24T16:47:25;5.47;;;1.77;;
24617;SDS011;12762;51.730;5.356;2022-09-24T16:49:52;4.60;;;2.70;;
24617;SDS011;12762;51.730;5.356;2022-09-24T16:52:19;6.50;;;2.03;;
24617;SDS011;12762;51.730;5.356;2022-09-24T16:54:46;6.93;;;2.03;;
24617;SDS011;12762;51.730;5.356;2022-09-24T16:57:12;10.17;;;2.00;;